DAL322 KDCA-KLGA
Flight info
| Callsign | DAL322 |
|---|---|
| Flight time | 0h 42m |
| Altitude | 27000 |
| Route | DOCTR5 AGARD SPEAK PROUD2 |
| Aircraft | A20N/M-SDE2E3FGHIRWXY/LB1 |
Departure
| Time | 2026-04-22 18:50 |
|---|---|
| Airport | Ronald Reagan Washington National Airport (KDCA) |
Arrival
| Time | 2026-04-22 19:32 |
|---|---|
| Airport | LaGuardia Airport (KLGA) |
| Time | Latitude | Longitude | Altitude | Speed | Heading |
|---|---|---|---|---|---|
| 2026-04-22 18:30 | 38.85270 | -77.04060 | 21 ft | 0 kts | 169° |
| 2026-04-22 18:36 | 38.85263 | -77.04059 | 22 ft | 1 kts | 169° |
| 2026-04-22 18:36 | 38.85258 | -77.04057 | 22 ft | 2 kts | 169° |
| 2026-04-22 18:36 | 38.85246 | -77.04055 | 22 ft | 3 kts | 170° |
| 2026-04-22 18:37 | 38.85245 | -77.04054 | 22 ft | 0 kts | 170° |
| 2026-04-22 18:43 | 38.85235 | -77.04033 | 22 ft | 7 kts | 93° |
| 2026-04-22 18:44 | 38.85277 | -77.03938 | 18 ft | 15 kts | 90° |
| 2026-04-22 18:44 | 38.85279 | -77.03816 | 19 ft | 15 kts | 44° |
| 2026-04-22 18:44 | 38.85328 | -77.03729 | 23 ft | 0 kts | 63° |
| 2026-04-22 18:44 | 38.85340 | -77.03698 | 23 ft | 13 kts | 63° |
| 2026-04-22 18:45 | 38.85430 | -77.03658 | 20 ft | 20 kts | 326° |
| 2026-04-22 18:45 | 38.85554 | -77.03786 | 22 ft | 25 kts | 322° |
| 2026-04-22 18:45 | 38.85696 | -77.03932 | 23 ft | 27 kts | 320° |
| 2026-04-22 18:45 | 38.85808 | -77.03990 | 27 ft | 8 kts | 10° |
| 2026-04-22 18:46 | 38.85873 | -77.03988 | 25 ft | 0 kts | 352° |
| 2026-04-22 18:46 | 38.85875 | -77.03988 | 25 ft | 2 kts | 352° |
| 2026-04-22 18:46 | 38.85932 | -77.04014 | 26 ft | 9 kts | 304° |
| 2026-04-22 18:46 | 38.85923 | -77.04101 | 26 ft | 10 kts | 244° |
| 2026-04-22 18:47 | 38.85901 | -77.04071 | 25 ft | 8 kts | 51° |
| 2026-04-22 18:47 | 38.85947 | -77.04000 | 25 ft | 12 kts | 50° |
| 2026-04-22 18:47 | 38.86004 | -77.03957 | 22 ft | 0 kts | 16° |
| 2026-04-22 18:48 | 38.86028 | -77.03948 | 21 ft | 11 kts | 15° |
| 2026-04-22 18:48 | 38.86089 | -77.03892 | 19 ft | 4 kts | 105° |
| 2026-04-22 18:49 | 38.86050 | -77.03865 | 20 ft | 7 kts | 174° |
| 2026-04-22 18:49 | 38.86042 | -77.03864 | 20 ft | 3 kts | 174° |
| 2026-04-22 18:49 | 38.85803 | -77.03838 | 25 ft | 80 kts | 175° |
| 2026-04-22 18:49 | 38.84965 | -77.03755 | 38 ft | 156 kts | 175° |
| 2026-04-22 18:50 | 38.83769 | -77.03642 | 572 ft | 185 kts | 175° |
| 2026-04-22 18:50 | 38.82413 | -77.03491 | 1451 ft | 202 kts | 176° |
| 2026-04-22 18:50 | 38.81002 | -77.03267 | 2491 ft | 211 kts | 175° |
| 2026-04-22 18:50 | 38.79547 | -77.02953 | 3539 ft | 211 kts | 173° |
| 2026-04-22 18:51 | 38.78083 | -77.02532 | 4310 ft | 227 kts | 172° |
| 2026-04-22 18:51 | 38.76534 | -77.01730 | 4911 ft | 258 kts | 146° |
| 2026-04-22 18:51 | 38.75343 | -76.99914 | 5766 ft | 272 kts | 115° |
| 2026-04-22 18:51 | 38.74898 | -76.97555 | 6764 ft | 277 kts | 91° |
| 2026-04-22 18:52 | 38.74894 | -76.95011 | 7469 ft | 294 kts | 84° |
| 2026-04-22 18:52 | 38.75132 | -76.93294 | 8058 ft | 295 kts | 66° |
| 2026-04-22 18:52 | 38.76684 | -76.90499 | 9467 ft | 288 kts | 32° |
| 2026-04-22 18:52 | 38.78395 | -76.89159 | 10392 ft | 294 kts | 25° |
| 2026-04-22 18:53 | 38.79603 | -76.88262 | 10736 ft | 309 kts | 25° |
| 2026-04-22 18:53 | 38.81530 | -76.86814 | 11161 ft | 333 kts | 26° |
| 2026-04-22 18:53 | 38.83560 | -76.85255 | 11847 ft | 344 kts | 27° |
| 2026-04-22 18:53 | 38.85510 | -76.83433 | 12799 ft | 353 kts | 38° |
| 2026-04-22 18:54 | 38.87535 | -76.80064 | 13974 ft | 369 kts | 58° |
| 2026-04-22 18:54 | 38.88291 | -76.78043 | 14501 ft | 374 kts | 61° |
| 2026-04-22 18:54 | 38.89407 | -76.75014 | 15307 ft | 378 kts | 60° |
| 2026-04-22 18:54 | 38.90545 | -76.71951 | 16084 ft | 383 kts | 60° |
| 2026-04-22 18:55 | 38.91703 | -76.68853 | 16856 ft | 387 kts | 60° |
| 2026-04-22 18:55 | 38.92875 | -76.65717 | 17622 ft | 393 kts | 60° |
| 2026-04-22 18:55 | 38.94064 | -76.62535 | 18391 ft | 397 kts | 60° |
| 2026-04-22 18:55 | 38.95241 | -76.59305 | 19046 ft | 402 kts | 62° |
| 2026-04-22 18:56 | 38.96341 | -76.55961 | 19733 ft | 407 kts | 63° |
| 2026-04-22 18:56 | 38.97398 | -76.52626 | 20390 ft | 411 kts | 64° |
| 2026-04-22 18:56 | 38.98501 | -76.49151 | 21067 ft | 416 kts | 63° |
| 2026-04-22 18:56 | 38.99594 | -76.45743 | 21715 ft | 420 kts | 63° |
| 2026-04-22 18:57 | 39.00619 | -76.42207 | 22359 ft | 427 kts | 69° |
| 2026-04-22 18:57 | 39.01297 | -76.38398 | 23005 ft | 435 kts | 78° |
| 2026-04-22 18:57 | 39.01677 | -76.34519 | 23621 ft | 440 kts | 80° |
| 2026-04-22 18:57 | 39.02056 | -76.30601 | 24158 ft | 443 kts | 79° |
| 2026-04-22 18:58 | 39.02438 | -76.26707 | 24698 ft | 446 kts | 79° |
| 2026-04-22 18:58 | 39.02830 | -76.22721 | 25226 ft | 450 kts | 79° |
| 2026-04-22 18:58 | 39.03226 | -76.18674 | 25745 ft | 453 kts | 79° |
| 2026-04-22 18:58 | 39.03620 | -76.14630 | 26245 ft | 456 kts | 79° |
| 2026-04-22 18:59 | 39.04013 | -76.10569 | 26742 ft | 460 kts | 79° |
| 2026-04-22 18:59 | 39.04383 | -76.06516 | 27010 ft | 464 kts | 82° |
| 2026-04-22 18:59 | 39.04574 | -76.02367 | 27070 ft | 465 kts | 83° |
| 2026-04-22 18:59 | 39.04761 | -75.98169 | 27071 ft | 464 kts | 83° |
| 2026-04-22 19:00 | 39.04947 | -75.94072 | 27075 ft | 464 kts | 83° |
| 2026-04-22 19:00 | 39.05135 | -75.89924 | 27068 ft | 464 kts | 83° |
| 2026-04-22 19:00 | 39.05321 | -75.85778 | 27069 ft | 464 kts | 83° |
| 2026-04-22 19:00 | 39.05506 | -75.81635 | 27067 ft | 464 kts | 83° |
| 2026-04-22 19:01 | 39.05887 | -75.77523 | 27063 ft | 460 kts | 73° |
| 2026-04-22 19:01 | 39.06925 | -75.73673 | 27059 ft | 452 kts | 59° |
| 2026-04-22 19:01 | 39.08577 | -75.70292 | 27054 ft | 443 kts | 45° |
| 2026-04-22 19:01 | 39.10676 | -75.67415 | 27068 ft | 438 kts | 38° |
| 2026-04-22 19:02 | 39.12899 | -75.64739 | 27054 ft | 438 kts | 37° |
| 2026-04-22 19:02 | 39.15119 | -75.62054 | 27049 ft | 438 kts | 38° |
| 2026-04-22 19:02 | 39.17303 | -75.59314 | 27060 ft | 439 kts | 39° |
| 2026-04-22 19:02 | 39.19464 | -75.56517 | 27055 ft | 439 kts | 40° |
| 2026-04-22 19:03 | 39.21599 | -75.53704 | 27054 ft | 439 kts | 40° |
| 2026-04-22 19:03 | 39.23856 | -75.51077 | 27053 ft | 434 kts | 32° |
| 2026-04-22 19:03 | 39.26314 | -75.48823 | 27055 ft | 431 kts | 28° |
| 2026-04-22 19:03 | 39.28792 | -75.46641 | 27053 ft | 431 kts | 29° |
| 2026-04-22 19:04 | 39.31266 | -75.44445 | 27058 ft | 431 kts | 29° |
| 2026-04-22 19:04 | 39.33739 | -75.42244 | 27058 ft | 431 kts | 29° |
| 2026-04-22 19:04 | 39.36212 | -75.40042 | 27060 ft | 431 kts | 29° |
| 2026-04-22 19:04 | 39.38686 | -75.37839 | 27065 ft | 431 kts | 29° |
| 2026-04-22 19:05 | 39.41157 | -75.35639 | 27062 ft | 431 kts | 29° |
| 2026-04-22 19:05 | 39.43589 | -75.33472 | 27065 ft | 431 kts | 29° |
| 2026-04-22 19:05 | 39.46062 | -75.31268 | 27064 ft | 431 kts | 29° |
| 2026-04-22 19:05 | 39.48575 | -75.29025 | 27063 ft | 431 kts | 29° |
| 2026-04-22 19:06 | 39.51040 | -75.26823 | 27064 ft | 431 kts | 29° |
| 2026-04-22 19:06 | 39.53068 | -75.24970 | 27063 ft | 432 kts | 30° |
| 2026-04-22 19:06 | 39.55227 | -75.22945 | 27065 ft | 432 kts | 30° |
| 2026-04-22 19:07 | 39.60091 | -75.18348 | 27066 ft | 432 kts | 30° |
| 2026-04-22 19:07 | 39.62511 | -75.16067 | 27069 ft | 431 kts | 30° |
| 2026-04-22 19:07 | 39.64947 | -75.13775 | 27068 ft | 431 kts | 30° |
| 2026-04-22 19:07 | 39.67409 | -75.11460 | 27072 ft | 431 kts | 30° |
| 2026-04-22 19:08 | 39.69832 | -75.09245 | 27073 ft | 430 kts | 28° |
| 2026-04-22 19:08 | 39.72357 | -75.07079 | 27074 ft | 429 kts | 27° |
| 2026-04-22 19:08 | 39.74869 | -75.04961 | 27076 ft | 429 kts | 27° |
| 2026-04-22 19:08 | 39.77367 | -75.02846 | 27074 ft | 429 kts | 27° |
| 2026-04-22 19:09 | 39.79857 | -75.00720 | 27073 ft | 429 kts | 28° |
| 2026-04-22 19:09 | 39.82356 | -74.98572 | 27076 ft | 429 kts | 28° |
| 2026-04-22 19:09 | 39.84844 | -74.96426 | 27078 ft | 429 kts | 28° |
| 2026-04-22 19:09 | 39.87319 | -74.94247 | 27072 ft | 429 kts | 29° |
| 2026-04-22 19:10 | 39.89776 | -74.92014 | 27080 ft | 430 kts | 30° |
| 2026-04-22 19:10 | 39.92155 | -74.89611 | 27076 ft | 434 kts | 36° |
| 2026-04-22 19:10 | 39.94273 | -74.86863 | 27077 ft | 439 kts | 43° |
| 2026-04-22 19:10 | 39.96318 | -74.83894 | 27071 ft | 439 kts | 43° |
| 2026-04-22 19:11 | 39.98367 | -74.80956 | 27082 ft | 439 kts | 42° |
| 2026-04-22 19:11 | 40.00428 | -74.78012 | 27082 ft | 438 kts | 42° |
| 2026-04-22 19:11 | 40.02484 | -74.75073 | 27066 ft | 438 kts | 42° |
| 2026-04-22 19:11 | 40.04534 | -74.72138 | 27105 ft | 438 kts | 42° |
| 2026-04-22 19:12 | 40.06591 | -74.69187 | 27105 ft | 439 kts | 42° |
| 2026-04-22 19:12 | 40.08644 | -74.66236 | 27097 ft | 438 kts | 42° |
| 2026-04-22 19:12 | 40.10691 | -74.63291 | 27096 ft | 439 kts | 42° |
| 2026-04-22 19:12 | 40.12743 | -74.60336 | 27101 ft | 438 kts | 42° |
| 2026-04-22 19:13 | 40.14788 | -74.57390 | 27098 ft | 438 kts | 42° |
| 2026-04-22 19:13 | 40.16847 | -74.54420 | 27096 ft | 438 kts | 43° |
| 2026-04-22 19:13 | 40.18816 | -74.51577 | 27093 ft | 438 kts | 43° |
| 2026-04-22 19:13 | 40.20901 | -74.48666 | 27089 ft | 435 kts | 38° |
| 2026-04-22 19:14 | 40.23074 | -74.45940 | 26857 ft | 434 kts | 38° |
| 2026-04-22 19:14 | 40.25249 | -74.43204 | 26156 ft | 436 kts | 38° |
| 2026-04-22 19:14 | 40.27450 | -74.40428 | 25166 ft | 441 kts | 39° |
| 2026-04-22 19:14 | 40.29675 | -74.37616 | 23996 ft | 443 kts | 39° |
| 2026-04-22 19:15 | 40.31162 | -74.35733 | 23261 ft | 440 kts | 39° |
| 2026-04-22 19:15 | 40.34046 | -74.32073 | 21940 ft | 429 kts | 39° |
| 2026-04-22 19:15 | 40.36177 | -74.29368 | 20963 ft | 422 kts | 39° |
| 2026-04-22 19:15 | 40.38271 | -74.26708 | 20021 ft | 416 kts | 39° |
| 2026-04-22 19:16 | 40.40331 | -74.24093 | 19088 ft | 410 kts | 39° |
| 2026-04-22 19:16 | 40.42383 | -74.21485 | 18132 ft | 404 kts | 39° |
| 2026-04-22 19:16 | 40.44370 | -74.18958 | 17107 ft | 398 kts | 39° |
| 2026-04-22 19:16 | 40.45703 | -74.17261 | 16425 ft | 395 kts | 40° |
| 2026-04-22 19:17 | 40.48298 | -74.13955 | 15126 ft | 388 kts | 40° |
| 2026-04-22 19:17 | 40.50230 | -74.11493 | 14185 ft | 384 kts | 40° |
| 2026-04-22 19:17 | 40.52234 | -74.09187 | 13351 ft | 380 kts | 33° |
| 2026-04-22 19:17 | 40.54400 | -74.07276 | 12704 ft | 373 kts | 28° |
| 2026-04-22 19:18 | 40.56590 | -74.05435 | 12082 ft | 370 kts | 29° |
| 2026-04-22 19:18 | 40.58732 | -74.03615 | 11436 ft | 367 kts | 29° |
| 2026-04-22 19:18 | 40.60873 | -74.01791 | 10820 ft | 364 kts | 29° |
| 2026-04-22 19:18 | 40.62989 | -73.99989 | 10199 ft | 361 kts | 29° |
| 2026-04-22 19:19 | 40.65086 | -73.98194 | 9694 ft | 354 kts | 29° |
| 2026-04-22 19:19 | 40.67027 | -73.96373 | 9518 ft | 340 kts | 34° |
| 2026-04-22 19:19 | 40.68802 | -73.94459 | 9354 ft | 326 kts | 36° |
| 2026-04-22 19:19 | 40.70530 | -73.92586 | 9216 ft | 311 kts | 35° |
| 2026-04-22 19:20 | 40.72164 | -73.90875 | 9075 ft | 297 kts | 34° |
| 2026-04-22 19:20 | 40.73552 | -73.88933 | 8946 ft | 290 kts | 56° |
| 2026-04-22 19:20 | 40.74166 | -73.86445 | 8825 ft | 283 kts | 84° |
| 2026-04-22 19:20 | 40.73886 | -73.83945 | 8711 ft | 272 kts | 114° |
| 2026-04-22 19:21 | 40.72819 | -73.81993 | 8613 ft | 257 kts | 144° |
| 2026-04-22 19:21 | 40.71281 | -73.81028 | 8513 ft | 237 kts | 176° |
| 2026-04-22 19:21 | 40.69755 | -73.81222 | 8393 ft | 213 kts | 210° |
| 2026-04-22 19:21 | 40.68687 | -73.82380 | 8196 ft | 194 kts | 242° |
| 2026-04-22 19:22 | 40.68070 | -73.83941 | 7901 ft | 192 kts | 250° |
| 2026-04-22 19:22 | 40.67412 | -73.85476 | 7596 ft | 194 kts | 236° |
| 2026-04-22 19:22 | 40.66475 | -73.86754 | 7343 ft | 196 kts | 226° |
| 2026-04-22 19:22 | 40.65413 | -73.87892 | 7071 ft | 197 kts | 222° |
| 2026-04-22 19:23 | 40.64322 | -73.88968 | 6620 ft | 195 kts | 219° |
| 2026-04-22 19:23 | 40.63222 | -73.90079 | 6252 ft | 201 kts | 223° |
| 2026-04-22 19:23 | 40.62408 | -73.91535 | 5990 ft | 198 kts | 249° |
| 2026-04-22 19:23 | 40.62177 | -73.93303 | 5714 ft | 197 kts | 276° |
| 2026-04-22 19:24 | 40.62581 | -73.95012 | 5408 ft | 197 kts | 302° |
| 2026-04-22 19:24 | 40.63520 | -73.96294 | 5143 ft | 196 kts | 329° |
| 2026-04-22 19:24 | 40.64743 | -73.96868 | 5091 ft | 180 kts | 353° |
| 2026-04-22 19:24 | 40.65929 | -73.96759 | 4991 ft | 168 kts | 16° |
| 2026-04-22 19:25 | 40.66948 | -73.96090 | 4880 ft | 158 kts | 38° |
| 2026-04-22 19:25 | 40.67796 | -73.95198 | 4684 ft | 155 kts | 38° |
| 2026-04-22 19:25 | 40.68706 | -73.94460 | 4429 ft | 155 kts | 16° |
| 2026-04-22 19:25 | 40.69756 | -73.94378 | 4165 ft | 153 kts | 338° |
| 2026-04-22 19:26 | 40.70598 | -73.95188 | 3933 ft | 150 kts | 307° |
| 2026-04-22 19:26 | 40.70883 | -73.96250 | 3718 ft | 150 kts | 266° |
| 2026-04-22 19:26 | 40.70449 | -73.97453 | 3473 ft | 149 kts | 223° |
| 2026-04-22 19:26 | 40.69657 | -73.98338 | 3263 ft | 150 kts | 212° |
| 2026-04-22 19:27 | 40.68652 | -73.98541 | 3170 ft | 151 kts | 162° |
| 2026-04-22 19:27 | 40.67893 | -73.97675 | 2972 ft | 151 kts | 113° |
| 2026-04-22 19:27 | 40.67782 | -73.96328 | 2769 ft | 150 kts | 81° |
| 2026-04-22 19:27 | 40.68087 | -73.95051 | 2667 ft | 140 kts | 66° |
| 2026-04-22 19:28 | 40.68534 | -73.93944 | 2477 ft | 137 kts | 60° |
| 2026-04-22 19:28 | 40.69037 | -73.92884 | 2241 ft | 136 kts | 59° |
| 2026-04-22 19:28 | 40.69371 | -73.92200 | 2187 ft | 124 kts | 59° |
| 2026-04-22 19:28 | 40.69840 | -73.91233 | 2234 ft | 136 kts | 60° |
| 2026-04-22 19:29 | 40.70353 | -73.90158 | 2203 ft | 138 kts | 60° |
| 2026-04-22 19:29 | 40.70865 | -73.89081 | 2208 ft | 138 kts | 61° |
| 2026-04-22 19:29 | 40.71373 | -73.88003 | 2174 ft | 142 kts | 61° |
| 2026-04-22 19:29 | 40.71889 | -73.86912 | 1987 ft | 139 kts | 62° |
| 2026-04-22 19:30 | 40.72234 | -73.86193 | 1776 ft | 140 kts | 62° |
| 2026-04-22 19:30 | 40.72968 | -73.84751 | 1261 ft | 143 kts | 58° |
| 2026-04-22 19:30 | 40.73592 | -73.83769 | 1037 ft | 135 kts | 47° |
| 2026-04-22 19:30 | 40.74379 | -73.83144 | 904 ft | 138 kts | 21° |
| 2026-04-22 19:31 | 40.75364 | -73.83143 | 754 ft | 146 kts | 344° |
| 2026-04-22 19:31 | 40.76209 | -73.83807 | 457 ft | 141 kts | 311° |
| 2026-04-22 19:31 | 40.76782 | -73.84827 | 191 ft | 137 kts | 298° |
| 2026-04-22 19:31 | 40.77278 | -73.85860 | 32 ft | 132 kts | 297° |
| 2026-04-22 19:32 | 40.77686 | -73.86720 | 17 ft | 71 kts | 302° |
| 2026-04-22 19:32 | 40.77809 | -73.87004 | 20 ft | 27 kts | 283° |
| 2026-04-22 19:32 | 40.77817 | -73.87078 | 18 ft | 5 kts | 276° |
| 2026-04-22 19:32 | 40.77812 | -73.87147 | 18 ft | 4 kts | 224° |
| 2026-04-22 19:33 | 40.77780 | -73.87138 | 17 ft | 7 kts | 146° |
| 2026-04-22 19:33 | 40.77745 | -73.87068 | 19 ft | 12 kts | 121° |
| 2026-04-22 19:33 | 40.77693 | -73.86958 | 17 ft | 16 kts | 123° |
| 2026-04-22 19:33 | 40.77631 | -73.86834 | 17 ft | 12 kts | 123° |
| 2026-04-22 19:34 | 40.77599 | -73.86818 | 18 ft | 3 kts | 206° |
| 2026-04-22 19:34 | 40.77551 | -73.86793 | 17 ft | 8 kts | 131° |
| 2026-04-22 19:34 | 40.77499 | -73.86716 | 17 ft | 12 kts | 123° |
| 2026-04-22 19:34 | 40.77454 | -73.86671 | 18 ft | 5 kts | 211° |
| 2026-04-22 19:35 | 40.77422 | -73.86722 | 17 ft | 9 kts | 264° |
| 2026-04-22 19:35 | 40.77439 | -73.86766 | 19 ft | 9 kts | 289° |
| 2026-04-22 19:35 | 40.77439 | -73.86846 | 17 ft | 0 kts | 264° |
| 2026-04-22 19:38 | 40.75811 | -73.83393 | 567 ft | 147 kts | 327° |
| 2026-04-22 19:38 | 40.76485 | -73.84237 | 332 ft | 139 kts | 302° |
| 2026-04-22 19:38 | 40.77007 | -73.85288 | 106 ft | 133 kts | 297° |
| 2026-04-22 19:39 | 40.77486 | -73.86300 | 17 ft | 121 kts | 298° |
| 2026-04-22 19:39 | 40.77756 | -73.86863 | 18 ft | 42 kts | 308° |